Weather History for Plant City, FL

Change the Weather History Date:

Wednesday, December 26, 2012

  Actual Average Record
Temperature  
Mean Temperature 66 °F -  
Max Temperature 78 °F 72 °F 86 °F (1941)
Min Temperature 53 °F 48 °F 20 °F (1983)
Growing Degree Days 16 (Base 50)    
Moisture  
Dew Point 60 °F    
Average Humidity 78    
Maximum Humidity 100    
Minimum Humidity 57    
Precipitation  
Precipitation 0.14 in - - ()
Sea Level Pressure  
Sea Level Pressure 29.91 in    
Wind  
Wind Speed 9 mph (SW)    
Max Wind Speed 22 mph    
Max Gust Speed 32 mph    
Visibility 10 miles    
Events Rain    
Averages and records for this station are not official NWS values.
T = Trace of Precipitation, MM = Missing Value Source: NWS Daily Summary

Daily Weather History Graph

Daily Weather History Graph

Search for Another Location

Airport:

Trip Planner

Search our weather history database for the weather conditions in past years. The results will help you decide how hot, cold, wet, or windy it might be!

Date:

Astronomy

Dec. 26, 2012 Rise Set
Actual Time 7:18 AM EST 5:40 PM EST
Civil Twilight 6:52 AM EST 6:06 PM EST
Nautical Twilight 6:23 AM EST 6:35 PM EST
Astronomical Twilight 5:54 AM EST 7:04 PM EST
Moon 4:31 PM EST (12/26) 5:43 AM EST (12/26)
Length of Visible Light 11h 14m
Length of Day
10h 22m
Waxing Gibbous, 97% of the Moon is Illuminated
Dec 26
Waxing Gibbous
Dec 28
Full
Jan 4
Last Quarter
Jan 11
New
Jan 18
First Quarter

Hourly Weather History & Observations

Time (EST) Temp. Dew Point Humidity Pressure Visibility Wind Dir Wind Speed Gust Speed Precip Events Conditions
12:15 AM 66.2 °F 60.8 °F 83% 29.93 in 10.0 mi SE 4.6 mph - N/A   Clear
12:35 AM 66.2 °F 60.8 °F 83% 29.92 in 10.0 mi SE 5.8 mph - N/A   Clear
12:55 AM 66.2 °F 60.8 °F 83% 29.92 in 10.0 mi SE 6.9 mph - N/A   Clear
1:15 AM 66.2 °F 60.8 °F 83% 29.93 in 10.0 mi SSE 4.6 mph - N/A   Clear
1:35 AM 66.2 °F 60.8 °F 83% 29.94 in 10.0 mi SSE 5.8 mph - N/A   Clear
1:55 AM 66.2 °F 60.8 °F 83% 29.94 in 10.0 mi SSE 5.8 mph - N/A   Clear
2:15 AM 64.4 °F 60.8 °F 88% 29.93 in 10.0 mi SSE 6.9 mph - N/A   Clear
2:35 AM 64.4 °F 60.8 °F 88% 29.93 in 10.0 mi SSE 6.9 mph - N/A   Mostly Cloudy
2:55 AM 64.4 °F 60.8 °F 88% 29.92 in 10.0 mi SSE 6.9 mph - N/A   Overcast
3:15 AM 66.2 °F 60.8 °F 83% 29.92 in 10.0 mi South 5.8 mph - N/A   Overcast
3:35 AM 66.2 °F 60.8 °F 83% 29.91 in 10.0 mi SSE 9.2 mph - N/A   Overcast
4:15 AM 66.2 °F 60.8 °F 83% 29.90 in 10.0 mi South 10.4 mph - N/A   Overcast
4:35 AM 68.0 °F 60.8 °F 78% 29.89 in 10.0 mi South 10.4 mph 16.1 mph N/A   Mostly Cloudy
4:55 AM 68.0 °F 62.6 °F 83% 29.88 in 10.0 mi South 10.4 mph - N/A   Mostly Cloudy
5:15 AM 68.0 °F 62.6 °F 83% 29.88 in 10.0 mi South 9.2 mph - N/A   Scattered Clouds
5:35 AM 68.0 °F 62.6 °F 83% 29.87 in 10.0 mi South 10.4 mph - N/A   Scattered Clouds
5:55 AM 68.0 °F 62.6 °F 83% 29.88 in 10.0 mi South 8.1 mph - N/A   Scattered Clouds
6:15 AM 68.0 °F 62.6 °F 83% 29.88 in 10.0 mi South 10.4 mph - N/A   Mostly Cloudy
6:35 AM 68.0 °F 64.4 °F 88% 29.88 in 10.0 mi South 10.4 mph 16.1 mph N/A   Overcast
6:55 AM 68.0 °F 64.4 °F 88% 29.88 in 10.0 mi South 10.4 mph 17.3 mph N/A   Scattered Clouds
7:15 AM 68.0 °F 64.4 °F 88% 29.89 in 10.0 mi South 8.1 mph - N/A   Clear
7:35 AM 68.0 °F 66.2 °F 94% 29.87 in 10.0 mi SSE 9.2 mph - N/A   Scattered Clouds
7:55 AM 68.0 °F 68.0 °F 100% 29.87 in 10.0 mi South 9.2 mph - N/A   Mostly Cloudy
8:15 AM 69.8 °F 69.8 °F 100% 29.87 in 10.0 mi South 12.7 mph 16.1 mph N/A   Mostly Cloudy
8:35 AM 71.6 °F 68.0 °F 88% 29.87 in 10.0 mi South 11.5 mph 19.6 mph N/A   Scattered Clouds
8:55 AM 73.4 °F 68.0 °F 83% 29.87 in 10.0 mi South 12.7 mph 23.0 mph N/A   Scattered Clouds
9:15 AM 73.4 °F 68.0 °F 83% 29.88 in 10.0 mi South 17.3 mph 24.2 mph N/A   Mostly Cloudy
9:35 AM 75.2 °F 68.0 °F 78% 29.87 in 10.0 mi South 13.8 mph 19.6 mph N/A   Mostly Cloudy
9:55 AM 75.2 °F 68.0 °F 78% 29.87 in 10.0 mi SSW 13.8 mph 20.7 mph N/A   Overcast
10:15 AM 75.2 °F 68.0 °F 78% 29.87 in 10.0 mi SSW 13.8 mph 23.0 mph N/A   Overcast
10:35 AM 77.0 °F 68.0 °F 74% 29.87 in 10.0 mi SSW 12.7 mph 16.1 mph N/A   Mostly Cloudy
10:55 AM 78.8 °F 68.0 °F 69% 29.87 in 10.0 mi SW 15.0 mph 23.0 mph N/A   Overcast
11:15 AM 78.8 °F 66.2 °F 65% 29.86 in 10.0 mi SW 20.7 mph 28.8 mph N/A   Overcast
11:35 AM 78.8 °F 66.2 °F 65% 29.85 in 10.0 mi SW 12.7 mph 24.2 mph N/A   Overcast
11:55 AM 78.8 °F 66.2 °F 65% 29.85 in 10.0 mi SW 21.9 mph 32.2 mph N/A   Overcast
12:15 PM 77.0 °F 68.0 °F 74% 29.83 in 10.0 mi SW 17.3 mph 27.6 mph N/A Rain Light Rain
12:35 PM 69.8 °F 66.2 °F 88% 29.86 in 2.5 mi West 17.3 mph 28.8 mph 0.12 in Rain Rain
12:55 PM 68.0 °F 68.0 °F 100% 29.85 in 7.0 mi WNW 10.4 mph 16.1 mph 0.14 in   Overcast
1:15 PM 69.8 °F - N/A% 29.86 in 7.0 mi West 9.2 mph 18.4 mph N/A   Overcast
1:35 PM 71.6 °F - N/A% 29.85 in 7.0 mi West 9.2 mph - N/A   Overcast
1:55 PM 71.6 °F 64.4 °F 78% 29.86 in 7.0 mi West 13.8 mph 24.2 mph N/A   Overcast
2:15 PM 71.6 °F 62.6 °F 73% 29.86 in 7.0 mi WNW 12.7 mph 19.6 mph N/A   Overcast
2:35 PM 71.6 °F 60.8 °F 69% 29.86 in 7.0 mi WNW 18.4 mph 26.5 mph N/A   Overcast
2:55 PM 71.6 °F 59.0 °F 64% 29.86 in 10.0 mi West 16.1 mph 26.5 mph N/A   Overcast
3:15 PM 71.6 °F 59.0 °F 64% 29.86 in 10.0 mi West 13.8 mph 20.7 mph N/A   Overcast
3:35 PM 71.6 °F 55.4 °F 57% 29.86 in 10.0 mi West 16.1 mph 27.6 mph N/A   Overcast
3:55 PM 69.8 °F 57.2 °F 64% 29.86 in 10.0 mi WNW 11.5 mph 25.3 mph N/A   Overcast
4:15 PM 69.8 °F 57.2 °F 64% 29.88 in 10.0 mi West 19.6 mph 26.5 mph N/A   Mostly Cloudy
4:35 PM 68.0 °F 57.2 °F 68% 29.89 in 10.0 mi NW 13.8 mph 19.6 mph N/A   Scattered Clouds
4:55 PM 68.0 °F 55.4 °F 64% 29.90 in 10.0 mi WNW 11.5 mph 24.2 mph N/A   Mostly Cloudy
5:15 PM 66.2 °F 55.4 °F 68% 29.91 in 10.0 mi NW 15.0 mph 23.0 mph N/A   Mostly Cloudy
5:35 PM 64.4 °F 53.6 °F 68% 29.92 in 10.0 mi WNW 12.7 mph 20.7 mph N/A   Mostly Cloudy
5:55 PM 62.6 °F 51.8 °F 68% 29.92 in 10.0 mi WNW 15.0 mph 23.0 mph N/A   Mostly Cloudy
6:15 PM 62.6 °F 51.8 °F 68% 29.93 in 10.0 mi West 9.2 mph 16.1 mph N/A   Scattered Clouds
6:35 PM 62.6 °F 53.6 °F 72% 29.94 in 10.0 mi WNW 11.5 mph - N/A   Mostly Cloudy
6:55 PM 60.8 °F 53.6 °F 77% 29.95 in 10.0 mi WNW 15.0 mph 19.6 mph N/A   Mostly Cloudy
7:15 PM 60.8 °F 51.8 °F 72% 29.96 in 10.0 mi WNW 9.2 mph 17.3 mph N/A   Scattered Clouds
7:35 PM 60.8 °F 51.8 °F 72% 29.97 in 10.0 mi WNW 10.4 mph - N/A   Mostly Cloudy
7:55 PM 59.0 °F 51.8 °F 77% 29.98 in 10.0 mi WNW 8.1 mph - N/A   Scattered Clouds
8:15 PM 59.0 °F 51.8 °F 77% 29.99 in 10.0 mi WNW 10.4 mph 16.1 mph N/A   Clear
8:35 PM 59.0 °F 51.8 °F 77% 29.99 in 10.0 mi WNW 6.9 mph - N/A   Clear
8:55 PM 59.0 °F 50.0 °F 72% 30.00 in 10.0 mi WNW 5.8 mph - N/A   Scattered Clouds
9:15 PM 57.2 °F 50.0 °F 77% 30.01 in 10.0 mi WNW 8.1 mph - N/A   Clear
9:35 PM 57.2 °F 50.0 °F 77% 30.01 in 10.0 mi WNW 8.1 mph - N/A   Clear
9:55 PM 57.2 °F 50.0 °F 77% 30.02 in 10.0 mi NW 5.8 mph - N/A   Clear
10:15 PM 55.4 °F 50.0 °F 82% 30.02 in 10.0 mi NW 5.8 mph - N/A   Clear
10:35 PM 55.4 °F 50.0 °F 82% 30.03 in 10.0 mi WNW 4.6 mph - N/A   Clear
10:55 PM 55.4 °F 50.0 °F 82% 30.03 in 10.0 mi WNW 4.6 mph - N/A   Clear
11:15 PM 53.6 °F 48.2 °F 82% 30.04 in 10.0 mi West 5.8 mph - N/A   Clear
11:35 PM 53.6 °F 48.2 °F 82% 30.04 in 10.0 mi West 3.5 mph - N/A   Clear
11:55 PM 53.6 °F 48.2 °F 82% 30.04 in 10.0 mi WNW 4.6 mph - N/A   Clear